Forestgrove, Montana
Current Conditions -  °F | °C
As of 9:54 AM on Friday 24 Oct 2014 (Local Time) from KLWT Reporting Station
Overcast Overcast  
Wind Chill: 52°   Ceiling: 7000
Heat Index: 52°   Visibility: 10mi
Dew Point: 37°   Wind: 9mph
Humidity: 57%   Direction: 280°W
Pressure: 30.06"   Gusts: NA
Location:  47.2485°N, 109.2631°W
Report Text: KLWT 241554Z AUTO 28008KT 10SM FEW055 BKN070 OVC085 11/03 A3006 RMK AO2 SLP171 T01110028
Loading
Personal Weather Stations






























Interactive Weather Map
Tropical Storm Tracking
New forecast layout! Learn more

10-Day Weather Forecast

Advertisements
Track Severe Weather on mobile